Time,TemperatureF,DewpointF,PressureIn,WindDirection,WindDirectionDegrees,WindSpeedMPH,WindSpeedGustMPH,Humidity,HourlyPrecipIn,Conditions,Clouds,dailyrainin,SoftwareType,DateUTC
2013-06-28 00:00:00,73.2,72.0,29.61,SSE,157,17.0,23.1,95,0.00,,,0.00,Rainwise IP-100,2013-06-28 04:00:00,
2013-06-28 00:01:00,73.2,72.0,29.61,SSE,157,16.6,23.1,95,0.00,,,0.00,Rainwise IP-100,2013-06-28 04:01:00,
2013-06-28 00:06:00,73.2,72.0,29.61,SSE,157,18.4,23.8,95,0.00,,,0.00,Rainwise IP-100,2013-06-28 04:06:00,
2013-06-28 00:11:00,73.2,72.0,29.61,SSE,157,20.3,20.5,95,0.00,,,0.00,Rainwise IP-100,2013-06-28 04:11:00,
2013-06-28 00:16:00,73.0,71.7,29.61,SSE,157,16.8,21.2,95,0.00,,,0.00,Rainwise IP-100,2013-06-28 04:16:00,
2013-06-28 00:21:00,72.8,71.3,29.61,SSE,157,12.6,18.9,95,0.00,,,0.00,Rainwise IP-100,2013-06-28 04:21:00,
2013-06-28 00:26:00,72.7,71.3,29.61,SSE,157,15.9,19.4,95,0.00,,,0.00,Rainwise IP-100,2013-06-28 04:26:00,
2013-06-28 00:31:00,72.7,71.3,29.61,SSE,157,15.4,20.1,95,0.00,,,0.00,Rainwise IP-100,2013-06-28 04:31:00,
2013-06-28 00:36:00,72.6,71.3,29.61,SSE,157,17.5,22.4,95,0.00,,,0.00,Rainwise IP-100,2013-06-28 04:36:00,
2013-06-28 00:41:00,72.6,71.3,29.61,SSE,157,15.4,21.9,95,0.00,,,0.00,Rainwise IP-100,2013-06-28 04:41:00,
2013-06-28 00:47:00,72.8,71.3,29.61,South,180,17.7,26.3,95,0.00,,,0.00,Rainwise IP-100,2013-06-28 04:47:00,
2013-06-28 00:52:00,73.0,71.7,29.60,SSE,157,20.5,24.9,95,0.00,,,0.00,Rainwise IP-100,2013-06-28 04:52:00,
2013-06-28 00:57:00,73.1,71.3,29.60,South,180,18.7,24.2,94,0.00,,,0.00,Rainwise IP-100,2013-06-28 04:57:00,
2013-06-28 01:02:00,73.0,71.3,29.60,South,180,14.0,21.9,94,0.00,,,0.00,Rainwise IP-100,2013-06-28 05:02:00,
2013-06-28 01:07:00,72.9,71.3,29.60,South,180,15.2,19.4,94,0.00,,,0.00,Rainwise IP-100,2013-06-28 05:07:00,
2013-06-28 01:12:00,72.7,71.0,29.60,South,180,14.9,16.8,94,0.00,,,0.00,Rainwise IP-100,2013-06-28 05:12:00,
2013-06-28 01:17:00,72.6,71.0,29.61,SSE,157,12.6,17.3,94,0.00,,,0.00,Rainwise IP-100,2013-06-28 05:17:00,
2013-06-28 01:22:00,72.7,71.0,29.60,South,180,10.0,14.7,94,0.00,,,0.00,Rainwise IP-100,2013-06-28 05:22:00,
2013-06-28 01:27:00,72.6,71.0,29.60,SSE,157,10.7,14.0,94,0.00,,,0.00,Rainwise IP-100,2013-06-28 05:27:00,
2013-06-28 01:32:00,72.6,71.0,29.60,South,180,10.5,13.1,94,0.00,,,0.00,Rainwise IP-100,2013-06-28 05:32:00,
2013-06-28 01:37:00,72.6,71.0,29.60,SSW,202,9.6,12.4,94,0.00,,,0.00,Rainwise IP-100,2013-06-28 05:37:00,
2013-06-28 01:43:00,72.6,71.0,29.60,South,180,7.5,12.6,94,0.00,,,0.00,Rainwise IP-100,2013-06-28 05:43:00,
2013-06-28 01:48:00,72.5,71.0,29.59,South,180,10.0,13.1,94,0.00,,,0.00,Rainwise IP-100,2013-06-28 05:48:00,
2013-06-28 01:53:00,72.5,71.0,29.59,SSE,157,12.4,13.8,94,0.00,,,0.00,Rainwise IP-100,2013-06-28 05:53:00,
2013-06-28 01:58:00,72.4,70.5,29.59,South,180,12.8,16.6,94,0.00,,,0.00,Rainwise IP-100,2013-06-28 05:58:00,
2013-06-28 02:02:00,72.3,70.5,29.59,SSE,157,12.8,16.3,94,0.00,,,0.00,Rainwise IP-100,2013-06-28 06:02:00,
2013-06-28 02:07:00,72.1,70.0,29.60,SSE,157,9.8,14.5,94,0.00,,,0.00,Rainwise IP-100,2013-06-28 06:07:00,
2013-06-28 02:12:00,72.1,70.0,29.59,South,180,12.4,12.8,94,0.00,,,0.00,Rainwise IP-100,2013-06-28 06:12:00,
2013-06-28 02:18:00,72.2,71.0,29.59,South,180,9.1,13.5,95,0.00,,,0.00,Rainwise IP-100,2013-06-28 06:18:00,
2013-06-28 02:23:00,72.3,71.0,29.59,South,180,11.0,14.7,95,0.00,,,0.00,Rainwise IP-100,2013-06-28 06:23:00,
2013-06-28 02:28:00,72.5,71.3,29.59,South,180,11.7,14.9,95,0.00,,,0.00,Rainwise IP-100,2013-06-28 06:28:00,
2013-06-28 02:33:00,72.4,71.0,29.59,SSE,157,10.3,12.6,95,0.00,,,0.00,Rainwise IP-100,2013-06-28 06:33:00,
2013-06-28 02:38:00,72.2,71.0,29.59,SSE,157,9.3,12.1,95,0.00,,,0.00,Rainwise IP-100,2013-06-28 06:38:00,
2013-06-28 02:43:00,71.8,70.0,29.59,SSE,157,11.2,11.9,95,0.00,,,0.00,Rainwise IP-100,2013-06-28 06:43:00,
2013-06-28 02:48:00,71.7,70.0,29.59,SSE,157,11.4,12.4,95,0.00,,,0.00,Rainwise IP-100,2013-06-28 06:48:00,
2013-06-28 02:54:00,71.7,70.0,29.59,SSE,157,11.0,13.1,95,0.00,,,0.00,Rainwise IP-100,2013-06-28 06:54:00,
2013-06-28 02:59:00,71.6,70.0,29.59,SSE,157,11.4,13.3,95,0.00,,,0.00,Rainwise IP-100,2013-06-28 06:59:00,
2013-06-28 03:04:00,71.5,70.0,29.59,SSE,157,10.7,11.9,95,0.00,,,0.00,Rainwise IP-100,2013-06-28 07:04:00,
2013-06-28 03:09:00,71.5,70.5,29.58,SSE,157,9.3,11.7,96,0.00,,,0.00,Rainwise IP-100,2013-06-28 07:09:00,
2013-06-28 03:14:00,71.6,70.5,29.59,South,180,8.2,11.0,96,0.00,,,0.00,Rainwise IP-100,2013-06-28 07:14:00,
2013-06-28 03:19:00,71.6,70.0,29.58,SSE,157,7.2,10.3,95,0.00,,,0.00,Rainwise IP-100,2013-06-28 07:19:00,
2013-06-28 03:24:00,71.6,70.0,29.58,SSE,157,9.8,9.8,95,0.00,,,0.00,Rainwise IP-100,2013-06-28 07:24:00,
2013-06-28 03:29:00,71.6,70.0,29.58,SSE,157,4.9,10.3,95,0.00,,,0.00,Rainwise IP-100,2013-06-28 07:29:00,
2013-06-28 03:35:00,71.6,70.0,29.58,SSE,157,10.0,11.2,95,0.00,,,0.00,Rainwise IP-100,2013-06-28 07:35:00,
2013-06-28 03:40:00,71.7,70.0,29.58,South,180,11.0,12.8,95,0.00,,,0.00,Rainwise IP-100,2013-06-28 07:40:00,
2013-06-28 03:45:00,72.0,70.5,29.58,SSW,202,7.2,13.8,95,0.00,,,0.00,Rainwise IP-100,2013-06-28 07:45:00,
2013-06-28 03:50:00,72.1,70.5,29.57,South,180,8.6,12.8,95,0.00,,,0.00,Rainwise IP-100,2013-06-28 07:50:00,
2013-06-28 03:55:00,72.2,70.5,29.57,SSW,202,6.8,11.9,94,0.00,,,0.00,Rainwise IP-100,2013-06-28 07:55:00,
2013-06-28 04:00:00,72.2,70.5,29.57,South,180,7.0,10.7,94,0.00,,,0.00,Rainwise IP-100,2013-06-28 08:00:00,
2013-06-28 04:05:00,72.2,70.5,29.57,SSW,202,5.6,12.6,94,0.00,,,0.00,Rainwise IP-100,2013-06-28 08:05:00,
2013-06-28 04:11:00,72.1,70.0,29.58,SSW,202,8.2,9.6,94,0.00,,,0.00,Rainwise IP-100,2013-06-28 08:11:00,
2013-06-28 04:16:00,72.1,70.5,29.57,SSW,202,4.9,10.7,95,0.00,,,0.00,Rainwise IP-100,2013-06-28 08:16:00,
2013-06-28 04:21:00,72.0,70.5,29.57,SSW,202,7.5,10.0,95,0.00,,,0.00,Rainwise IP-100,2013-06-28 08:21:00,
2013-06-28 04:26:00,71.9,70.5,29.57,SSW,202,4.9,9.6,95,0.00,,,0.00,Rainwise IP-100,2013-06-28 08:26:00,
2013-06-28 04:31:00,71.9,70.5,29.57,SSW,202,6.3,8.4,95,0.00,,,0.00,Rainwise IP-100,2013-06-28 08:31:00,
2013-06-28 04:36:00,71.8,70.0,29.56,SSW,202,9.8,11.9,95,0.00,,,0.00,Rainwise IP-100,2013-06-28 08:36:00,
2013-06-28 04:41:00,71.8,70.0,29.57,SSW,202,8.9,12.1,95,0.00,,,0.00,Rainwise IP-100,2013-06-28 08:41:00,
2013-06-28 04:46:00,71.8,70.0,29.56,SSW,202,9.3,12.1,95,0.00,,,0.00,Rainwise IP-100,2013-06-28 08:46:00,
2013-06-28 04:52:00,71.8,70.0,29.56,SSE,157,7.9,12.8,95,0.00,,,0.00,Rainwise IP-100,2013-06-28 08:52:00,
2013-06-28 04:57:00,71.8,70.0,29.56,South,180,7.5,11.4,95,0.00,,,0.00,Rainwise IP-100,2013-06-28 08:57:00,
2013-06-28 05:02:00,71.8,70.0,29.57,South,180,8.2,12.8,95,0.00,,,0.00,Rainwise IP-100,2013-06-28 09:02:00,
2013-06-28 05:07:00,71.8,70.0,29.57,SSW,202,6.3,13.8,95,0.00,,,0.00,Rainwise IP-100,2013-06-28 09:07:00,
2013-06-28 05:12:00,71.7,70.0,29.57,SSW,202,5.1,11.9,95,0.00,,,0.00,Rainwise IP-100,2013-06-28 09:12:00,
2013-06-28 05:17:00,71.7,70.0,29.57,South,180,9.8,12.4,95,0.00,,,0.00,Rainwise IP-100,2013-06-28 09:17:00,
2013-06-28 05:22:00,71.8,70.0,29.57,SSE,157,8.2,13.5,95,0.00,,,0.00,Rainwise IP-100,2013-06-28 09:22:00,
2013-06-28 05:28:00,71.9,70.5,29.57,South,180,10.3,14.5,95,0.00,,,0.00,Rainwise IP-100,2013-06-28 09:28:00,
2013-06-28 05:33:00,71.9,70.5,29.57,South,180,13.8,15.4,95,0.00,,,0.00,Rainwise IP-100,2013-06-28 09:33:00,
2013-06-28 05:38:00,72.0,70.5,29.57,South,180,8.6,16.1,95,0.00,,,0.00,Rainwise IP-100,2013-06-28 09:38:00,
2013-06-28 05:43:00,72.0,70.5,29.57,SW,225,9.6,14.9,95,0.00,,,0.00,Rainwise IP-100,2013-06-28 09:43:00,
2013-06-28 05:48:00,72.1,70.5,29.57,South,180,6.3,11.9,95,0.00,,,0.00,Rainwise IP-100,2013-06-28 09:48:00,
2013-06-28 05:53:00,72.1,70.5,29.57,SSW,202,6.3,7.7,95,0.00,,,0.00,Rainwise IP-100,2013-06-28 09:53:00,
2013-06-28 05:58:00,72.0,70.5,29.57,SSW,202,4.4,11.0,95,0.00,,,0.00,Rainwise IP-100,2013-06-28 09:58:00,
2013-06-28 06:03:00,71.9,70.5,29.57,South,180,6.8,12.4,95,0.00,,,0.00,Rainwise IP-100,2013-06-28 10:03:00,
2013-06-28 06:09:00,71.8,70.0,29.57,SSW,202,4.7,11.2,95,0.00,,,0.00,Rainwise IP-100,2013-06-28 10:09:00,
2013-06-28 06:14:00,71.7,70.0,29.57,SSW,202,8.2,10.7,95,0.00,,,0.00,Rainwise IP-100,2013-06-28 10:14:00,
2013-06-28 06:19:00,71.6,70.0,29.58,SSE,157,1.2,9.6,95,0.00,,,0.00,Rainwise IP-100,2013-06-28 10:19:00,
2013-06-28 06:24:00,71.7,70.0,29.57,SSW,202,9.1,10.7,95,0.00,,,0.00,Rainwise IP-100,2013-06-28 10:24:00,
2013-06-28 06:29:00,71.8,70.0,29.58,South,180,7.7,13.3,95,0.00,,,0.00,Rainwise IP-100,2013-06-28 10:29:00,
2013-06-28 06:34:00,71.9,70.5,29.57,SSW,202,8.2,10.0,95,0.00,,,0.00,Rainwise IP-100,2013-06-28 10:34:00,
2013-06-28 06:39:00,72.0,70.5,29.58,SSW,202,4.7,9.8,95,0.00,,,0.00,Rainwise IP-100,2013-06-28 10:39:00,
2013-06-28 06:45:00,72.2,71.0,29.58,South,180,4.9,9.1,95,0.00,,,0.00,Rainwise IP-100,2013-06-28 10:45:00,
2013-06-28 06:50:00,72.5,71.0,29.58,SSW,202,8.9,8.9,94,0.00,,,0.00,Rainwise IP-100,2013-06-28 10:50:00,
2013-06-28 06:55:00,72.9,71.3,29.58,South,180,6.8,9.1,94,0.00,,,0.00,Rainwise IP-100,2013-06-28 10:55:00,
2013-06-28 07:00:00,73.2,71.3,29.58,SSW,202,6.1,9.8,93,0.00,,,0.00,Rainwise IP-100,2013-06-28 11:00:00,
2013-06-28 07:05:00,73.3,71.3,29.58,SSW,202,4.9,9.3,93,0.00,,,0.00,Rainwise IP-100,2013-06-28 11:05:00,
2013-06-28 07:10:00,73.1,71.0,29.59,SW,225,4.2,13.1,93,0.00,,,0.00,Rainwise IP-100,2013-06-28 11:10:00,
2013-06-28 07:15:00,72.8,70.5,29.59,SSW,202,10.0,10.0,93,0.00,,,0.00,Rainwise IP-100,2013-06-28 11:15:00,
2013-06-28 07:19:00,72.8,70.5,29.58,SSW,202,7.0,10.5,93,0.00,,,0.00,Rainwise IP-100,2013-06-28 11:19:00,
2013-06-28 07:24:00,72.7,70.5,29.59,WSW,247,4.7,10.3,93,0.00,,,0.00,Rainwise IP-100,2013-06-28 11:24:00,
2013-06-28 07:29:00,72.7,70.5,29.58,SSW,202,9.3,11.2,93,0.00,,,0.00,Rainwise IP-100,2013-06-28 11:29:00,
2013-06-28 07:34:00,72.9,71.0,29.58,SSW,202,6.8,11.7,93,0.00,,,0.00,Rainwise IP-100,2013-06-28 11:34:00,
2013-06-28 07:39:00,73.2,71.3,29.58,SSW,202,3.7,11.7,93,0.00,,,0.00,Rainwise IP-100,2013-06-28 11:39:00,
2013-06-28 07:45:00,73.4,71.3,29.58,SW,225,6.3,8.4,93,0.00,,,0.00,Rainwise IP-100,2013-06-28 11:45:00,
2013-06-28 07:50:00,73.8,71.3,29.58,SW,225,8.2,9.1,92,0.00,,,0.00,Rainwise IP-100,2013-06-28 11:50:00,
2013-06-28 07:54:00,74.2,72.0,29.57,South,180,4.2,10.0,92,0.00,,,0.00,Rainwise IP-100,2013-06-28 11:54:00,
2013-06-28 07:59:00,74.7,72.0,29.57,SSW,202,4.0,7.9,91,0.00,,,0.00,Rainwise IP-100,2013-06-28 11:59:00,
2013-06-28 08:00:00,74.8,72.0,29.57,South,180,5.4,7.9,91,0.00,,,0.00,Rainwise IP-100,2013-06-28 12:00:00,
2013-06-28 08:05:00,75.5,72.0,29.57,South,180,5.6,9.3,89,0.00,,,0.00,Rainwise IP-100,2013-06-28 12:05:00,
2013-06-28 08:07:00,75.7,72.0,29.57,SSW,202,5.8,7.2,89,0.00,,,0.00,Rainwise IP-100,2013-06-28 12:07:00,
2013-06-28 08:09:00,75.8,72.3,29.57,South,180,4.2,7.2,89,0.00,,,0.00,Rainwise IP-100,2013-06-28 12:09:00,
2013-06-28 08:10:00,75.9,72.0,29.57,South,180,6.1,7.2,88,0.00,,,0.00,Rainwise IP-100,2013-06-28 12:10:00,
2013-06-28 08:14:00,76.1,71.7,29.58,South,180,8.9,9.3,87,0.00,,,0.00,Rainwise IP-100,2013-06-28 12:14:00,
2013-06-28 08:19:00,76.3,71.7,29.57,SSE,157,9.3,11.4,86,0.00,,,0.00,Rainwise IP-100,2013-06-28 12:19:00,
2013-06-28 08:24:00,75.8,71.3,29.58,SSW,202,11.0,13.5,86,0.00,,,0.00,Rainwise IP-100,2013-06-28 12:24:00,
2013-06-28 08:29:00,75.3,71.3,29.58,SW,225,4.7,13.1,87,0.00,,,0.00,Rainwise IP-100,2013-06-28 12:29:00,
2013-06-28 08:34:00,75.0,71.3,29.57,South,180,5.8,10.7,87,0.00,,,0.00,Rainwise IP-100,2013-06-28 12:34:00,
2013-06-28 08:39:00,75.0,71.3,29.57,South,180,6.3,8.6,88,0.00,,,0.00,Rainwise IP-100,2013-06-28 12:39:00,
2013-06-28 08:45:00,75.1,71.3,29.57,SSE,157,7.9,7.9,87,0.00,,,0.00,Rainwise IP-100,2013-06-28 12:45:00,
2013-06-28 08:50:00,74.9,71.3,29.56,South,180,8.2,9.8,87,0.00,,,0.00,Rainwise IP-100,2013-06-28 12:50:00,
2013-06-28 08:55:00,74.6,71.0,29.56,SSE,157,9.8,9.8,87,0.00,,,0.00,Rainwise IP-100,2013-06-28 12:55:00,
2013-06-28 09:00:00,74.3,71.0,29.57,South,180,7.9,9.8,88,0.00,,,0.00,Rainwise IP-100,2013-06-28 13:00:00,
2013-06-28 09:05:00,74.3,71.0,29.56,South,180,10.7,11.4,88,0.00,,,0.00,Rainwise IP-100,2013-06-28 13:05:00,
2013-06-28 09:10:00,74.7,71.0,29.56,South,180,8.9,12.8,87,0.00,,,0.00,Rainwise IP-100,2013-06-28 13:10:00,
2013-06-28 09:15:00,75.0,71.3,29.55,SSW,202,10.7,12.8,87,0.00,,,0.00,Rainwise IP-100,2013-06-28 13:15:00,
2013-06-28 09:20:00,75.1,71.3,29.56,South,180,11.0,13.1,87,0.00,,,0.00,Rainwise IP-100,2013-06-28 13:20:00,
2013-06-28 09:26:00,75.2,71.0,29.55,SSW,202,9.8,14.0,86,0.00,,,0.00,Rainwise IP-100,2013-06-28 13:26:00,
2013-06-28 09:31:00,75.5,71.3,29.55,South,180,10.7,13.8,86,0.00,,,0.00,Rainwise IP-100,2013-06-28 13:31:00,
2013-06-28 09:36:00,75.8,71.3,29.54,SSW,202,9.3,12.6,85,0.00,,,0.00,Rainwise IP-100,2013-06-28 13:36:00,
2013-06-28 09:41:00,76.0,71.0,29.54,South,180,8.9,11.9,84,0.00,,,0.00,Rainwise IP-100,2013-06-28 13:41:00,
2013-06-28 09:46:00,76.3,71.0,29.54,South,180,8.4,12.4,84,0.00,,,0.00,Rainwise IP-100,2013-06-28 13:46:00,
2013-06-28 09:51:00,76.3,71.0,29.54,South,180,9.6,13.5,84,0.00,,,0.00,Rainwise IP-100,2013-06-28 13:51:00,
2013-06-28 09:56:00,75.8,71.0,29.54,South,180,10.0,15.2,84,0.00,,,0.00,Rainwise IP-100,2013-06-28 13:56:00,
2013-06-28 10:02:00,75.5,71.0,29.54,South,180,12.1,13.1,85,0.00,,,0.00,Rainwise IP-100,2013-06-28 14:02:00,
2013-06-28 10:07:00,75.5,71.0,29.54,SSE,157,10.3,12.8,85,0.00,,,0.00,Rainwise IP-100,2013-06-28 14:07:00,
2013-06-28 10:12:00,75.8,71.3,29.54,South,180,10.7,14.9,85,0.00,,,0.00,Rainwise IP-100,2013-06-28 14:12:00,
2013-06-28 10:17:00,76.1,71.0,29.54,SSW,202,11.9,13.8,84,0.00,,,0.00,Rainwise IP-100,2013-06-28 14:17:00,
2013-06-28 10:22:00,76.4,71.0,29.54,SSW,202,11.0,15.9,83,0.00,,,0.00,Rainwise IP-100,2013-06-28 14:22:00,
2013-06-28 10:27:00,76.6,70.5,29.54,South,180,13.3,14.7,82,0.00,,,0.00,Rainwise IP-100,2013-06-28 14:27:00,
2013-06-28 10:32:00,76.6,70.5,29.54,South,180,10.3,14.5,82,0.00,,,0.00,Rainwise IP-100,2013-06-28 14:32:00,
2013-06-28 10:37:00,76.7,71.0,29.54,South,180,8.6,14.9,82,0.00,,,0.00,Rainwise IP-100,2013-06-28 14:37:00,
2013-06-28 10:42:00,76.7,70.5,29.55,South,180,11.0,11.7,81,0.00,,,0.00,Rainwise IP-100,2013-06-28 14:42:00,
2013-06-28 10:47:00,76.6,70.5,29.55,SW,225,6.5,11.7,81,0.00,,,0.00,Rainwise IP-100,2013-06-28 14:47:00,
2013-06-28 10:53:00,76.7,71.0,29.54,South,180,6.3,10.7,82,0.00,,,0.00,Rainwise IP-100,2013-06-28 14:53:00,
2013-06-28 10:58:00,77.0,71.0,29.54,WNW,292,8.2,13.1,81,0.00,,,0.00,Rainwise IP-100,2013-06-28 14:58:00,
2013-06-28 11:03:00,77.4,71.0,29.55,NW,315,7.0,11.7,80,0.00,,,0.00,Rainwise IP-100,2013-06-28 15:03:00,
2013-06-28 11:08:00,77.5,71.0,29.55,WSW,247,5.6,11.7,79,0.00,,,0.00,Rainwise IP-100,2013-06-28 15:08:00,
2013-06-28 11:13:00,77.5,71.0,29.55,WSW,247,4.0,7.5,79,0.00,,,0.00,Rainwise IP-100,2013-06-28 15:13:00,
2013-06-28 11:18:00,77.3,70.5,29.55,WSW,247,4.2,8.6,79,0.00,,,0.00,Rainwise IP-100,2013-06-28 15:18:00,
2013-06-28 11:23:00,77.0,70.0,29.56,WSW,247,3.0,5.4,79,0.00,,,0.00,Rainwise IP-100,2013-06-28 15:23:00,
2013-06-28 11:28:00,76.9,70.5,29.56,SW,225,1.4,4.7,80,0.00,,,0.00,Rainwise IP-100,2013-06-28 15:28:00,
2013-06-28 11:34:00,76.9,70.5,29.55,WSW,247,4.4,5.1,80,0.00,,,0.00,Rainwise IP-100,2013-06-28 15:34:00,
2013-06-28 11:39:00,77.0,70.5,29.55,West,270,3.5,6.8,80,0.00,,,0.00,Rainwise IP-100,2013-06-28 15:39:00,
2013-06-28 11:44:00,77.4,71.0,29.56,WSW,247,5.4,6.5,80,0.00,,,0.00,Rainwise IP-100,2013-06-28 15:44:00,
2013-06-28 11:45:00,77.5,71.3,29.56,WSW,247,5.4,6.5,80,0.00,,,0.00,Rainwise IP-100,2013-06-28 15:45:00,
2013-06-28 11:46:00,77.6,71.3,29.56,WSW,247,4.0,7.0,80,0.00,,,0.00,Rainwise IP-100,2013-06-28 15:46:00,
2013-06-28 11:50:00,78.2,71.3,29.56,SSW,202,5.4,7.7,79,0.00,,,0.00,Rainwise IP-100,2013-06-28 15:50:00,
2013-06-28 11:51:00,78.6,71.3,29.57,South,180,0.0,7.7,78,0.00,,,0.00,Rainwise IP-100,2013-06-28 15:51:00,
2013-06-28 11:52:00,78.6,71.3,29.57,WSW,247,1.9,7.7,78,0.00,,,0.00,Rainwise IP-100,2013-06-28 15:52:00,
2013-06-28 11:53:00,78.7,71.3,29.56,South,180,3.7,7.7,78,0.00,,,0.00,Rainwise IP-100,2013-06-28 15:53:00,
2013-06-28 11:56:00,79.2,71.7,29.56,SSW,202,7.0,7.0,77,0.00,,,0.00,Rainwise IP-100,2013-06-28 15:56:00,
2013-06-28 11:58:00,79.5,72.0,29.56,SSW,202,9.3,9.3,77,0.00,,,0.00,Rainwise IP-100,2013-06-28 15:58:00,
2013-06-28 11:59:00,79.7,71.7,29.56,SSW,202,2.8,10.7,76,0.00,,,0.00,Rainwise IP-100,2013-06-28 15:59:00,
2013-06-28 12:00:00,79.9,71.7,29.56,SW,225,5.6,10.7,76,0.00,,,0.00,Rainwise IP-100,2013-06-28 16:00:00,
2013-06-28 12:03:00,80.4,72.0,29.56,SSW,202,7.5,10.7,75,0.00,,,0.00,Rainwise IP-100,2013-06-28 16:03:00,
2013-06-28 12:05:00,80.6,71.7,29.56,SSW,202,9.3,9.8,74,0.00,,,0.00,Rainwise IP-100,2013-06-28 16:05:00,
2013-06-28 12:07:00,80.6,71.7,29.56,WSW,247,7.0,9.8,74,0.00,,,0.00,Rainwise IP-100,2013-06-28 16:07:00,
2013-06-28 12:08:00,80.8,71.3,29.56,SSW,202,7.0,9.8,73,0.00,,,0.00,Rainwise IP-100,2013-06-28 16:08:00,
2013-06-28 12:11:00,80.9,71.7,29.56,SSE,157,9.1,11.4,73,0.00,,,0.00,Rainwise IP-100,2013-06-28 16:11:00,
2013-06-28 12:15:00,80.1,71.0,29.56,SSE,157,9.3,11.4,74,0.00,,,0.00,Rainwise IP-100,2013-06-28 16:15:00,
2013-06-28 12:16:00,79.7,70.5,29.56,SE,135,9.1,11.4,74,0.00,,,0.00,Rainwise IP-100,2013-06-28 16:16:00,
2013-06-28 12:17:00,79.4,71.0,29.56,SE,135,5.6,10.3,75,0.00,,,0.00,Rainwise IP-100,2013-06-28 16:17:00,
2013-06-28 12:21:00,77.6,70.5,29.56,SE,135,8.9,9.1,78,0.00,,,0.00,Rainwise IP-100,2013-06-28 16:21:00,
2013-06-28 12:24:00,76.8,70.0,29.56,SSE,157,7.5,9.1,80,0.00,,,0.00,Rainwise IP-100,2013-06-28 16:24:00,
2013-06-28 12:25:00,76.5,70.5,29.56,SE,135,9.3,9.6,81,0.00,,,0.00,Rainwise IP-100,2013-06-28 16:25:00,
2013-06-28 12:30:00,76.6,70.5,29.56,SSE,157,8.6,10.5,81,0.00,,,0.00,Rainwise IP-100,2013-06-28 16:30:00,
2013-06-28 12:32:00,76.6,70.5,29.56,SSE,157,7.2,9.3,82,0.00,,,0.00,Rainwise IP-100,2013-06-28 16:32:00,
2013-06-28 12:34:00,76.6,70.5,29.56,SSE,157,7.2,8.6,82,0.00,,,0.00,Rainwise IP-100,2013-06-28 16:34:00,
2013-06-28 12:35:00,76.6,70.5,29.56,SSE,157,6.8,8.6,82,0.00,,,0.00,Rainwise IP-100,2013-06-28 16:35:00,
2013-06-28 12:37:00,76.6,70.5,29.57,SSE,157,6.1,8.2,82,0.00,,,0.00,Rainwise IP-100,2013-06-28 16:37:00,
2013-06-28 12:40:00,76.5,70.5,29.56,SSE,157,5.8,7.0,82,0.00,,,0.00,Rainwise IP-100,2013-06-28 16:40:00,
2013-06-28 12:43:00,76.3,70.5,29.56,SSE,157,5.6,7.0,82,0.00,,,0.00,Rainwise IP-100,2013-06-28 16:43:00,
2013-06-28 12:48:00,76.4,71.0,29.56,South,180,9.3,10.5,83,0.00,,,0.00,Rainwise IP-100,2013-06-28 16:48:00,
2013-06-28 12:51:00,76.8,71.0,29.56,South,180,7.2,11.2,82,0.00,,,0.00,Rainwise IP-100,2013-06-28 16:51:00,
2013-06-28 12:52:00,77.1,71.0,29.56,SSE,157,6.8,11.2,81,0.00,,,0.00,Rainwise IP-100,2013-06-28 16:52:00,
2013-06-28 12:53:00,77.1,71.0,29.56,SSE,157,7.2,11.2,81,0.00,,,0.00,Rainwise IP-100,2013-06-28 16:53:00,
2013-06-28 12:57:00,77.2,71.0,29.56,SSE,157,6.5,8.9,80,0.00,,,0.00,Rainwise IP-100,2013-06-28 16:57:00,
2013-06-28 12:58:00,77.2,71.0,29.56,SSE,157,7.9,8.9,80,0.00,,,0.00,Rainwise IP-100,2013-06-28 16:58:00,
2013-06-28 12:59:00,77.0,71.0,29.56,SSE,157,7.7,8.9,81,0.00,,,0.00,Rainwise IP-100,2013-06-28 16:59:00,
2013-06-28 13:01:00,76.6,70.5,29.56,SSE,157,7.2,8.6,81,0.00,,,0.00,Rainwise IP-100,2013-06-28 17:01:00,
2013-06-28 13:04:00,76.1,70.0,29.56,SSE,157,5.8,8.6,82,0.00,,,0.00,Rainwise IP-100,2013-06-28 17:04:00,
2013-06-28 13:05:00,76.0,70.0,29.56,SSE,157,6.8,8.2,82,0.00,,,0.00,Rainwise IP-100,2013-06-28 17:05:00,
2013-06-28 13:06:00,75.8,70.5,29.56,SSE,157,4.4,7.2,83,0.00,,,0.00,Rainwise IP-100,2013-06-28 17:06:00,
2013-06-28 13:07:00,75.8,70.5,29.55,SSE,157,4.7,7.2,83,0.00,,,0.00,Rainwise IP-100,2013-06-28 17:07:00,
2013-06-28 13:09:00,75.8,70.5,29.56,SSE,157,4.7,7.2,83,0.00,,,0.00,Rainwise IP-100,2013-06-28 17:09:00,
2013-06-28 13:10:00,75.9,70.5,29.55,SSE,157,4.9,6.8,83,0.00,,,0.00,Rainwise IP-100,2013-06-28 17:10:00,
2013-06-28 13:11:00,75.9,70.5,29.55,SSE,157,5.8,5.8,83,0.00,,,0.00,Rainwise IP-100,2013-06-28 17:11:00,
2013-06-28 13:13:00,76.1,70.5,29.55,SSE,157,3.7,5.8,83,0.00,,,0.00,Rainwise IP-100,2013-06-28 17:13:00,
2013-06-28 13:16:00,76.2,71.0,29.55,SSE,157,6.3,7.2,83,0.00,,,0.00,Rainwise IP-100,2013-06-28 17:16:00,
2013-06-28 13:17:00,76.3,71.0,29.55,SSE,157,7.9,7.9,83,0.00,,,0.00,Rainwise IP-100,2013-06-28 17:17:00,
2013-06-28 13:18:00,76.4,71.0,29.55,SSE,157,7.0,8.6,83,0.00,,,0.00,Rainwise IP-100,2013-06-28 17:18:00,
2013-06-28 13:20:00,76.5,71.0,29.55,SSE,157,6.5,8.6,83,0.00,,,0.00,Rainwise IP-100,2013-06-28 17:20:00,
2013-06-28 13:22:00,76.4,71.0,29.55,SSE,157,6.5,8.6,83,0.00,,,0.00,Rainwise IP-100,2013-06-28 17:22:00,
2013-06-28 13:24:00,76.5,70.5,29.55,SSE,157,6.8,7.9,82,0.00,,,0.00,Rainwise IP-100,2013-06-28 17:24:00,
2013-06-28 13:25:00,76.7,71.0,29.55,SSE,157,7.0,7.9,82,0.00,,,0.00,Rainwise IP-100,2013-06-28 17:25:00,
2013-06-28 13:27:00,76.9,71.3,29.55,SSE,157,8.4,8.6,82,0.00,,,0.00,Rainwise IP-100,2013-06-28 17:27:00,
2013-06-28 13:28:00,77.0,71.3,29.55,South,180,8.4,8.6,82,0.00,,,0.00,Rainwise IP-100,2013-06-28 17:28:00,
2013-06-28 13:33:00,77.7,71.3,29.55,South,180,11.0,11.9,80,0.00,,,0.00,Rainwise IP-100,2013-06-28 17:33:00,
2013-06-28 13:34:00,77.8,71.3,29.55,South,180,10.7,12.4,80,0.00,,,0.00,Rainwise IP-100,2013-06-28 17:34:00,
2013-06-28 13:39:00,77.9,71.0,29.55,SSE,157,13.3,14.5,78,0.00,,,0.00,Rainwise IP-100,2013-06-28 17:39:00,
2013-06-28 13:40:00,78.0,71.0,29.55,South,180,13.8,14.7,78,0.00,,,0.00,Rainwise IP-100,2013-06-28 17:40:00,
2013-06-28 13:41:00,78.0,71.0,29.55,South,180,11.7,15.4,78,0.00,,,0.00,Rainwise IP-100,2013-06-28 17:41:00,
2013-06-28 13:44:00,77.9,71.0,29.55,SSE,157,11.7,15.4,78,0.00,,,0.00,Rainwise IP-100,2013-06-28 17:44:00,
2013-06-28 13:45:00,77.9,71.0,29.55,South,180,11.9,13.1,78,0.00,,,0.00,Rainwise IP-100,2013-06-28 17:45:00,
2013-06-28 13:46:00,77.9,71.0,29.55,South,180,11.4,13.1,78,0.00,,,0.00,Rainwise IP-100,2013-06-28 17:46:00,
2013-06-28 13:48:00,77.9,71.3,29.55,South,180,12.4,13.1,79,0.00,,,0.00,Rainwise IP-100,2013-06-28 17:48:00,
2013-06-28 13:53:00,77.8,71.0,29.55,South,180,11.7,16.6,79,0.00,,,0.00,Rainwise IP-100,2013-06-28 17:53:00,
2013-06-28 13:54:00,77.8,71.0,29.55,SSW,202,13.5,16.6,79,0.00,,,0.00,Rainwise IP-100,2013-06-28 17:54:00,
2013-06-28 13:55:00,77.8,71.0,29.55,South,180,11.7,16.6,79,0.00,,,0.00,Rainwise IP-100,2013-06-28 17:55:00,
2013-06-28 13:56:00,77.8,71.0,29.55,South,180,10.5,16.6,79,0.00,,,0.00,Rainwise IP-100,2013-06-28 17:56:00,
2013-06-28 14:01:00,77.9,71.3,29.54,South,180,14.0,14.9,79,0.00,,,0.00,Rainwise IP-100,2013-06-28 18:01:00,
2013-06-28 14:03:00,77.9,71.3,29.54,South,180,15.2,15.2,79,0.00,,,0.00,Rainwise IP-100,2013-06-28 18:03:00,
2013-06-28 14:04:00,77.9,71.3,29.54,SSW,202,11.0,16.8,79,0.00,,,0.00,Rainwise IP-100,2013-06-28 18:04:00,
2013-06-28 14:05:00,78.0,71.3,29.55,South,180,12.6,17.5,79,0.00,,,0.00,Rainwise IP-100,2013-06-28 18:05:00,
2013-06-28 14:08:00,78.3,71.0,29.54,South,180,13.3,17.5,78,0.00,,,0.00,Rainwise IP-100,2013-06-28 18:08:00,
2013-06-28 14:09:00,78.4,71.0,29.54,South,180,12.8,15.2,78,0.00,,,0.00,Rainwise IP-100,2013-06-28 18:09:00,
2013-06-28 14:11:00,78.5,71.0,29.54,South,180,11.0,13.8,77,0.00,,,0.00,Rainwise IP-100,2013-06-28 18:11:00,
2013-06-28 14:14:00,78.7,71.0,29.53,South,180,10.7,13.5,77,0.00,,,0.00,Rainwise IP-100,2013-06-28 18:14:00,
2013-06-28 14:15:00,78.7,71.0,29.54,South,180,13.1,13.5,77,0.00,,,0.00,Rainwise IP-100,2013-06-28 18:15:00,
2013-06-28 14:17:00,78.7,71.0,29.54,SSE,157,12.1,13.3,77,0.00,,,0.00,Rainwise IP-100,2013-06-28 18:17:00,
2013-06-28 14:20:00,78.6,71.0,29.54,South,180,10.5,13.1,77,0.00,,,0.00,Rainwise IP-100,2013-06-28 18:20:00,
2013-06-28 14:21:00,78.5,71.0,29.53,South,180,10.0,13.1,77,0.00,,,0.00,Rainwise IP-100,2013-06-28 18:21:00,
2013-06-28 14:22:00,78.4,70.5,29.53,South,180,9.6,13.8,77,0.00,,,0.00,Rainwise IP-100,2013-06-28 18:22:00,
2013-06-28 14:24:00,78.3,71.0,29.53,South,180,8.2,13.8,78,0.00,,,0.00,Rainwise IP-100,2013-06-28 18:24:00,
2013-06-28 14:27:00,78.1,71.0,29.53,South,180,11.2,11.9,78,0.00,,,0.00,Rainwise IP-100,2013-06-28 18:27:00,
2013-06-28 14:32:00,77.9,71.3,29.53,SSE,157,10.0,11.7,79,0.00,,,0.00,Rainwise IP-100,2013-06-28 18:32:00,
2013-06-28 14:37:00,77.9,71.3,29.53,South,180,10.0,12.6,79,0.00,,,0.00,Rainwise IP-100,2013-06-28 18:37:00,
2013-06-28 14:42:00,78.0,71.0,29.53,South,180,10.3,16.6,78,0.00,,,0.00,Rainwise IP-100,2013-06-28 18:42:00,
2013-06-28 14:47:00,78.4,71.0,29.53,South,180,11.2,16.8,78,0.00,,,0.00,Rainwise IP-100,2013-06-28 18:47:00,
2013-06-28 14:52:00,78.7,71.0,29.53,South,180,12.1,16.8,77,0.00,,,0.00,Rainwise IP-100,2013-06-28 18:52:00,
2013-06-28 14:58:00,78.8,70.5,29.54,SSW,202,12.4,16.8,76,0.00,,,0.00,Rainwise IP-100,2013-06-28 18:58:00,
2013-06-28 15:03:00,78.9,71.0,29.53,SSW,202,11.0,17.3,76,0.00,,,0.00,Rainwise IP-100,2013-06-28 19:03:00,
2013-06-28 15:08:00,79.1,70.5,29.53,South,180,12.1,18.4,75,0.00,,,0.00,Rainwise IP-100,2013-06-28 19:08:00,
2013-06-28 15:11:00,79.2,70.5,29.53,South,180,12.1,17.0,74,0.00,,,0.00,Rainwise IP-100,2013-06-28 19:11:00,
2013-06-28 15:16:00,79.2,70.5,29.53,South,180,13.3,15.2,74,0.00,,,0.00,Rainwise IP-100,2013-06-28 19:16:00,
2013-06-28 15:21:00,78.9,70.0,29.53,South,180,11.4,15.2,74,0.00,,,0.00,Rainwise IP-100,2013-06-28 19:21:00,
2013-06-28 15:26:00,78.9,70.0,29.53,South,180,12.8,17.3,74,0.00,,,0.00,Rainwise IP-100,2013-06-28 19:26:00,
2013-06-28 15:30:00,79.1,70.0,29.53,SSW,202,15.2,17.3,74,0.00,,,0.00,Rainwise IP-100,2013-06-28 19:30:00,
2013-06-28 15:33:00,79.2,70.5,29.53,SSW,202,16.6,19.1,74,0.00,,,0.00,Rainwise IP-100,2013-06-28 19:33:00,
2013-06-28 15:38:00,79.4,70.5,29.53,South,180,13.1,18.4,74,0.00,,,0.00,Rainwise IP-100,2013-06-28 19:38:00,
2013-06-28 15:44:00,79.6,70.0,29.52,South,180,11.7,17.5,73,0.00,,,0.00,Rainwise IP-100,2013-06-28 19:44:00,
2013-06-28 15:49:00,79.7,70.0,29.51,South,180,16.3,18.7,73,0.00,,,0.00,Rainwise IP-100,2013-06-28 19:49:00,
2013-06-28 15:54:00,80.0,70.5,29.52,South,180,15.9,16.8,73,0.00,,,0.00,Rainwise IP-100,2013-06-28 19:54:00,
2013-06-28 15:59:00,80.2,70.5,29.51,South,180,12.8,18.2,72,0.00,,,0.00,Rainwise IP-100,2013-06-28 19:59:00,
2013-06-28 16:04:00,80.2,70.5,29.51,South,180,10.7,19.1,72,0.00,,,0.00,Rainwise IP-100,2013-06-28 20:04:00,
2013-06-28 16:09:00,80.4,71.0,29.50,SSW,202,13.8,15.4,72,0.00,,,0.00,Rainwise IP-100,2013-06-28 20:09:00,
2013-06-28 16:14:00,80.6,70.5,29.51,South,180,12.6,15.6,71,0.00,,,0.00,Rainwise IP-100,2013-06-28 20:14:00,
2013-06-28 16:20:00,80.8,70.0,29.51,South,180,11.9,17.0,70,0.00,,,0.00,Rainwise IP-100,2013-06-28 20:20:00,
2013-06-28 16:25:00,81.0,70.5,29.51,SSE,157,14.5,16.6,70,0.00,,,0.00,Rainwise IP-100,2013-06-28 20:25:00,
2013-06-28 16:30:00,81.0,70.5,29.51,South,180,8.6,17.5,70,0.00,,,0.00,Rainwise IP-100,2013-06-28 20:30:00,
2013-06-28 16:35:00,81.1,70.5,29.50,South,180,11.4,17.3,70,0.00,,,0.00,Rainwise IP-100,2013-06-28 20:35:00,
2013-06-28 16:40:00,81.0,70.5,29.50,South,180,12.8,16.6,70,0.00,,,0.00,Rainwise IP-100,2013-06-28 20:40:00,
2013-06-28 16:45:00,80.8,70.5,29.51,SSW,202,12.6,16.1,71,0.00,,,0.00,Rainwise IP-100,2013-06-28 20:45:00,
2013-06-28 16:50:00,80.9,71.0,29.51,SSW,202,11.0,15.4,71,0.00,,,0.00,Rainwise IP-100,2013-06-28 20:50:00,
2013-06-28 16:55:00,80.9,71.0,29.51,SSW,202,13.1,15.9,71,0.00,,,0.00,Rainwise IP-100,2013-06-28 20:55:00,
2013-06-28 17:00:00,80.7,70.5,29.51,SSW,202,19.1,19.6,71,0.00,,,0.00,Rainwise IP-100,2013-06-28 21:00:00,
2013-06-28 17:03:00,80.6,70.5,29.52,South,180,15.9,19.6,71,0.00,,,0.00,Rainwise IP-100,2013-06-28 21:03:00,
2013-06-28 17:08:00,80.6,70.0,29.52,South,180,14.0,19.8,70,0.00,,,0.00,Rainwise IP-100,2013-06-28 21:08:00,
2013-06-28 17:13:00,80.5,70.0,29.52,South,180,14.0,19.1,70,0.00,,,0.00,Rainwise IP-100,2013-06-28 21:13:00,
2013-06-28 17:19:00,80.1,69.7,29.52,South,180,12.4,17.3,71,0.00,,,0.00,Rainwise IP-100,2013-06-28 21:19:00,
2013-06-28 17:24:00,79.8,69.7,29.53,South,180,16.3,16.3,72,0.00,,,0.00,Rainwise IP-100,2013-06-28 21:24:00,
2013-06-28 17:29:00,79.9,70.0,29.51,South,180,14.0,18.0,72,0.00,,,0.00,Rainwise IP-100,2013-06-28 21:29:00,
2013-06-28 17:34:00,79.7,69.7,29.52,South,180,9.3,14.5,72,0.00,,,0.00,Rainwise IP-100,2013-06-28 21:34:00,
2013-06-28 17:39:00,78.9,70.0,29.52,SSE,157,13.1,13.1,74,0.00,,,0.00,Rainwise IP-100,2013-06-28 21:39:00,
2013-06-28 17:44:00,78.1,70.5,29.51,SSE,157,9.8,14.2,77,0.00,,,0.00,Rainwise IP-100,2013-06-28 21:44:00,
2013-06-28 17:49:00,77.2,70.5,29.51,SSE,157,11.7,13.1,79,0.00,,,0.00,Rainwise IP-100,2013-06-28 21:49:00,
2013-06-28 17:54:00,76.9,71.0,29.51,SSE,157,12.8,15.4,81,0.00,,,0.00,Rainwise IP-100,2013-06-28 21:54:00,
2013-06-28 18:00:00,77.0,71.0,29.52,SSE,157,17.7,18.0,81,0.00,,,0.00,Rainwise IP-100,2013-06-28 22:00:00,
2013-06-28 18:05:00,77.0,71.0,29.51,SSE,157,15.2,18.7,81,0.00,,,0.00,Rainwise IP-100,2013-06-28 22:05:00,
2013-06-28 18:10:00,77.0,71.0,29.51,SSE,157,14.2,19.1,81,0.00,,,0.00,Rainwise IP-100,2013-06-28 22:10:00,
2013-06-28 18:15:00,76.9,71.0,29.51,SSE,157,14.2,15.2,81,0.00,,,0.00,Rainwise IP-100,2013-06-28 22:15:00,
2013-06-28 18:20:00,76.4,70.5,29.52,SSE,157,15.6,15.6,82,0.00,,,0.00,Rainwise IP-100,2013-06-28 22:20:00,
2013-06-28 18:25:00,76.2,71.0,29.52,SSE,157,16.6,18.0,83,0.00,,,0.00,Rainwise IP-100,2013-06-28 22:25:00,
2013-06-28 18:30:00,76.3,71.0,29.52,South,180,17.0,21.2,84,0.00,,,0.00,Rainwise IP-100,2013-06-28 22:30:00,
2013-06-28 18:35:00,76.4,71.0,29.53,South,180,11.9,20.1,83,0.00,,,0.00,Rainwise IP-100,2013-06-28 22:35:00,
2013-06-28 18:41:00,76.5,71.0,29.53,South,180,16.8,19.1,83,0.00,,,0.00,Rainwise IP-100,2013-06-28 22:41:00,
2013-06-28 18:46:00,76.4,71.0,29.53,South,180,14.5,17.3,83,0.00,,,0.00,Rainwise IP-100,2013-06-28 22:46:00,
2013-06-28 18:51:00,76.4,71.0,29.54,South,180,11.0,15.4,83,0.00,,,0.00,Rainwise IP-100,2013-06-28 22:51:00,
2013-06-28 18:56:00,76.7,71.3,29.53,South,180,7.7,12.8,83,0.00,,,0.00,Rainwise IP-100,2013-06-28 22:56:00,
2013-06-28 19:01:00,76.8,71.3,29.53,SSW,202,8.4,12.8,83,0.00,,,0.00,Rainwise IP-100,2013-06-28 23:01:00,
2013-06-28 19:06:00,76.6,71.0,29.53,South,180,13.5,15.9,83,0.00,,,0.00,Rainwise IP-100,2013-06-28 23:06:00,
2013-06-28 19:11:00,76.3,71.0,29.53,South,180,15.2,18.7,83,0.00,,,0.00,Rainwise IP-100,2013-06-28 23:11:00,
2013-06-28 19:17:00,76.1,71.0,29.53,SSW,202,7.9,17.0,84,0.00,,,0.00,Rainwise IP-100,2013-06-28 23:17:00,
2013-06-28 19:22:00,75.9,71.0,29.53,South,180,7.7,12.6,84,0.00,,,0.00,Rainwise IP-100,2013-06-28 23:22:00,
2013-06-28 19:27:00,75.9,71.3,29.53,South,180,9.8,11.9,85,0.00,,,0.00,Rainwise IP-100,2013-06-28 23:27:00,
2013-06-28 19:32:00,76.0,71.3,29.52,South,180,7.2,12.6,85,0.00,,,0.00,Rainwise IP-100,2013-06-28 23:32:00,
2013-06-28 19:37:00,76.0,71.3,29.53,SSW,202,7.9,10.5,85,0.00,,,0.00,Rainwise IP-100,2013-06-28 23:37:00,
2013-06-28 19:42:00,75.9,71.3,29.52,South,180,8.6,9.1,85,0.00,,,0.00,Rainwise IP-100,2013-06-28 23:42:00,
2013-06-28 19:47:00,75.8,71.3,29.52,SSE,157,2.3,11.2,85,0.00,,,0.00,Rainwise IP-100,2013-06-28 23:47:00,
2013-06-28 19:52:00,75.7,71.0,29.53,SSW,202,5.6,7.0,85,0.00,,,0.00,Rainwise IP-100,2013-06-28 23:52:00,
2013-06-28 19:58:00,75.6,71.3,29.52,South,180,5.1,6.5,86,0.00,,,0.00,Rainwise IP-100,2013-06-28 23:58:00,
2013-06-28 20:03:00,75.4,71.3,29.53,WSW,247,2.1,8.6,86,0.00,,,0.00,Rainwise IP-100,2013-06-29 00:03:00,
2013-06-28 20:08:00,75.2,71.0,29.52,SSW,202,4.0,7.2,86,0.00,,,0.00,Rainwise IP-100,2013-06-29 00:08:00,
2013-06-28 20:13:00,75.2,71.3,29.52,West,270,4.0,6.1,87,0.00,,,0.00,Rainwise IP-100,2013-06-29 00:13:00,
2013-06-28 20:18:00,75.2,71.3,29.53,West,270,4.0,8.4,87,0.00,,,0.00,Rainwise IP-100,2013-06-29 00:18:00,
2013-06-28 20:23:00,75.2,71.3,29.54,South,180,6.1,7.2,87,0.00,,,0.00,Rainwise IP-100,2013-06-29 00:23:00,
2013-06-28 20:28:00,75.2,71.3,29.53,SW,225,4.4,7.0,87,0.00,,,0.00,Rainwise IP-100,2013-06-29 00:28:00,
2013-06-28 20:34:00,75.2,71.3,29.54,SW,225,1.9,8.6,87,0.00,,,0.00,Rainwise IP-100,2013-06-29 00:34:00,
2013-06-28 20:39:00,75.1,71.3,29.55,WSW,247,2.1,4.4,87,0.00,,,0.00,Rainwise IP-100,2013-06-29 00:39:00,
2013-06-28 20:44:00,75.1,71.3,29.55,South,180,11.0,11.9,88,0.00,,,0.00,Rainwise IP-100,2013-06-29 00:44:00,
2013-06-28 20:49:00,75.1,71.3,29.55,SSW,202,9.8,12.4,88,0.00,,,0.00,Rainwise IP-100,2013-06-29 00:49:00,
2013-06-28 20:54:00,75.1,71.3,29.55,SSW,202,7.0,12.6,88,0.00,,,0.00,Rainwise IP-100,2013-06-29 00:54:00,
2013-06-28 20:59:00,75.1,71.3,29.55,SSW,202,7.7,8.9,88,0.00,,,0.00,Rainwise IP-100,2013-06-29 00:59:00,
2013-06-28 21:04:00,74.9,71.3,29.55,SSW,202,8.2,8.6,88,0.00,,,0.00,Rainwise IP-100,2013-06-29 01:04:00,
2013-06-28 21:09:00,74.7,71.3,29.55,South,180,3.5,9.6,88,0.00,,,0.00,Rainwise IP-100,2013-06-29 01:09:00,
2013-06-28 21:14:00,74.5,71.3,29.55,SSW,202,3.7,6.1,89,0.00,,,0.00,Rainwise IP-100,2013-06-29 01:14:00,
2013-06-28 21:16:00,74.5,71.3,29.55,SSW,202,3.3,6.1,89,0.00,,,0.00,Rainwise IP-100,2013-06-29 01:16:00,
2013-06-28 21:21:00,74.3,71.3,29.55,SSW,202,6.8,7.9,89,0.00,,,0.00,Rainwise IP-100,2013-06-29 01:21:00,
2013-06-28 21:26:00,74.3,71.3,29.56,SSW,202,1.4,7.7,89,0.00,,,0.00,Rainwise IP-100,2013-06-29 01:26:00,
2013-06-28 21:31:00,74.3,71.0,29.55,WNW,292,2.8,4.4,88,0.00,,,0.00,Rainwise IP-100,2013-06-29 01:31:00,
2013-06-28 21:36:00,74.5,71.3,29.54,SSW,202,1.2,5.8,88,0.00,,,0.00,Rainwise IP-100,2013-06-29 01:36:00,
2013-06-28 21:41:00,74.8,71.0,29.54,WSW,247,4.2,6.3,87,0.00,,,0.00,Rainwise IP-100,2013-06-29 01:41:00,
2013-06-28 21:47:00,75.2,71.0,29.55,SSW,202,6.1,6.1,86,0.00,,,0.00,Rainwise IP-100,2013-06-29 01:47:00,
2013-06-28 21:52:00,75.4,71.0,29.54,SSW,202,4.7,7.2,85,0.00,,,0.00,Rainwise IP-100,2013-06-29 01:52:00,
2013-06-28 21:57:00,75.6,71.0,29.55,SSW,202,4.0,5.8,85,0.00,,,0.00,Rainwise IP-100,2013-06-29 01:57:00,
2013-06-28 22:02:00,75.6,71.0,29.55,SSE,157,4.2,6.8,85,0.00,,,0.00,Rainwise IP-100,2013-06-29 02:02:00,
2013-06-28 22:07:00,75.5,71.0,29.55,South,180,4.0,6.3,85,0.00,,,0.00,Rainwise IP-100,2013-06-29 02:07:00,
2013-06-28 22:12:00,75.5,71.0,29.56,South,180,5.6,6.8,85,0.00,,,0.00,Rainwise IP-100,2013-06-29 02:12:00,
2013-06-28 22:14:00,75.5,71.0,29.56,SSE,157,7.2,7.2,85,0.00,,,0.00,Rainwise IP-100,2013-06-29 02:14:00,
2013-06-28 22:19:00,75.4,71.0,29.56,South,180,10.5,11.4,85,0.00,,,0.00,Rainwise IP-100,2013-06-29 02:19:00,
2013-06-28 22:24:00,74.7,70.5,29.56,South,180,7.9,13.3,86,0.00,,,0.00,Rainwise IP-100,2013-06-29 02:24:00,
2013-06-28 22:29:00,74.3,70.0,29.56,South,180,9.1,11.0,86,0.00,,,0.00,Rainwise IP-100,2013-06-29 02:29:00,
2013-06-28 22:34:00,74.0,70.0,29.56,SSW,202,7.5,9.3,87,0.00,,,0.00,Rainwise IP-100,2013-06-29 02:34:00,
2013-06-28 22:39:00,73.7,69.7,29.56,SSW,202,7.7,8.6,87,0.00,,,0.00,Rainwise IP-100,2013-06-29 02:39:00,
2013-06-28 22:45:00,73.6,69.3,29.56,SSW,202,6.8,9.1,86,0.00,,,0.00,Rainwise IP-100,2013-06-29 02:45:00,
2013-06-28 22:50:00,73.7,69.0,29.56,SSW,202,4.0,8.6,85,0.00,,,0.00,Rainwise IP-100,2013-06-29 02:50:00,
2013-06-28 22:55:00,73.9,69.0,29.56,SW,225,3.0,6.3,84,0.00,,,0.00,Rainwise IP-100,2013-06-29 02:55:00,
2013-06-28 23:00:00,74.2,69.0,29.55,WNW,292,2.8,7.5,82,0.00,,,0.00,Rainwise IP-100,2013-06-29 03:00:00,
2013-06-28 23:05:00,74.8,68.5,29.56,WNW,292,8.2,13.1,80,0.00,,,0.00,Rainwise IP-100,2013-06-29 03:05:00,
2013-06-28 23:10:00,75.6,67.5,29.56,WSW,247,2.8,8.9,76,0.00,,,0.00,Rainwise IP-100,2013-06-29 03:10:00,
2013-06-28 23:15:00,75.9,67.0,29.55,SE,135,0.0,5.1,74,0.00,,,0.00,Rainwise IP-100,2013-06-29 03:15:00,
2013-06-28 23:20:00,75.9,67.0,29.55,SSW,202,4.0,5.6,74,0.00,,,0.00,Rainwise IP-100,2013-06-29 03:20:00,
2013-06-28 23:25:00,75.6,67.0,29.55,SSW,202,3.5,7.5,75,0.00,,,0.00,Rainwise IP-100,2013-06-29 03:25:00,
2013-06-28 23:31:00,75.2,67.0,29.54,WSW,247,2.1,4.2,76,0.00,,,0.00,Rainwise IP-100,2013-06-29 03:31:00,
2013-06-28 23:36:00,75.2,66.3,29.54,SSW,202,4.2,5.8,74,0.00,,,0.00,Rainwise IP-100,2013-06-29 03:36:00,
2013-06-28 23:41:00,75.4,66.3,29.55,SSW,202,2.8,4.9,73,0.00,,,0.00,Rainwise IP-100,2013-06-29 03:41:00,
2013-06-28 23:46:00,75.4,66.3,29.55,SSE,157,7.5,7.9,73,0.00,,,0.00,Rainwise IP-100,2013-06-29 03:46:00,
2013-06-28 23:51:00,74.9,67.0,29.56,SSE,157,7.9,10.7,76,0.00,,,0.00,Rainwise IP-100,2013-06-29 03:51:00,
2013-06-28 23:56:00,74.2,67.5,29.55,SSW,202,2.8,9.1,79,0.00,,,0.00,Rainwise IP-100,2013-06-29 03:56:00,